createdAt,value
2023-05-05T00:02:21.600Z,97.20
2023-05-05T00:04:49.766Z,97.50
2023-05-05T00:07:17.718Z,97.50
2023-05-05T00:09:45.854Z,97.80
2023-05-05T00:12:15.151Z,98.10
2023-05-05T00:14:43.177Z,98.40
2023-05-05T00:17:11.427Z,98.70
2023-05-05T00:19:39.419Z,99.00
2023-05-05T00:22:07.587Z,99.20
2023-05-05T00:24:35.964Z,99.30
2023-05-05T00:27:04.121Z,99.60
2023-05-05T00:29:33.439Z,99.80
2023-05-05T00:32:01.466Z,99.90
2023-05-05T00:34:29.579Z,99.90
2023-05-05T00:36:57.492Z,99.90
2023-05-05T00:39:25.696Z,99.90
2023-05-05T00:41:53.604Z,99.90
2023-05-05T00:44:41.581Z,99.90
2023-05-05T00:47:09.948Z,99.90
2023-05-05T00:49:39.148Z,99.90
2023-05-05T00:52:07.891Z,99.90
2023-05-05T00:54:36.278Z,99.90
2023-05-05T00:57:04.688Z,99.90
2023-05-05T00:59:34.702Z,99.90
2023-05-05T01:02:04.381Z,99.90
2023-05-05T01:04:32.475Z,99.90
2023-05-05T01:07:10.003Z,99.90
2023-05-05T01:09:46.261Z,99.90
2023-05-05T01:12:23.734Z,99.90
2023-05-05T01:15:01.630Z,99.90
2023-05-05T01:17:46.697Z,99.90
2023-05-05T01:20:22.006Z,99.90
2023-05-05T01:22:58.693Z,99.90
2023-05-05T01:25:42.412Z,99.90
2023-05-05T01:28:25.304Z,99.90
2023-05-05T01:31:11.514Z,99.90
2023-05-05T01:33:46.923Z,99.90
2023-05-05T01:36:22.884Z,99.90
2023-05-05T01:38:56.509Z,99.90
2023-05-05T01:41:27.924Z,99.90
2023-05-05T01:43:58.319Z,99.90
2023-05-05T01:46:26.374Z,99.90
2023-05-05T01:48:56.899Z,99.90
2023-05-05T01:51:28.064Z,99.90
2023-05-05T01:53:59.999Z,99.90
2023-05-05T01:56:30.085Z,99.90
2023-05-05T01:59:01.420Z,99.90
2023-05-05T02:01:30.591Z,99.90
2023-05-05T02:04:01.564Z,99.90
2023-05-05T02:06:32.604Z,99.90
2023-05-05T02:09:01.435Z,99.90
2023-05-05T02:11:30.595Z,99.90
2023-05-05T02:13:59.855Z,99.90
2023-05-05T02:16:28.052Z,99.90
2023-05-05T02:18:57.100Z,99.90
2023-05-05T02:21:26.448Z,99.90
2023-05-05T02:23:54.438Z,99.90
2023-05-05T02:26:24.825Z,99.90
2023-05-05T02:29:01.942Z,99.90
2023-05-05T02:31:32.439Z,99.90
2023-05-05T02:34:02.536Z,99.90
2023-05-05T02:36:34.856Z,99.90
2023-05-05T02:39:09.935Z,99.90
2023-05-05T02:41:40.857Z,99.90
2023-05-05T02:44:10.573Z,99.90
2023-05-05T02:46:39.581Z,99.90
2023-05-05T02:49:07.616Z,99.90
2023-05-05T02:51:37.171Z,99.90
2023-05-05T02:54:05.683Z,99.90
2023-05-05T02:56:40.752Z,99.90
2023-05-05T02:59:15.987Z,99.90
2023-05-05T03:02:07.921Z,99.90
2023-05-05T03:04:40.845Z,99.90
2023-05-05T03:07:14.645Z,99.90
2023-05-05T03:09:47.076Z,99.90
2023-05-05T03:12:21.783Z,99.90
2023-05-05T03:14:55.359Z,99.90
2023-05-05T03:17:25.508Z,99.90
2023-05-05T03:19:54.020Z,99.90
2023-05-05T03:22:23.512Z,99.90
2023-05-05T03:24:51.987Z,99.90
2023-05-05T03:27:20.562Z,99.90
2023-05-05T03:29:48.505Z,99.90
2023-05-05T03:32:16.787Z,99.90
2023-05-05T03:34:44.698Z,99.90
2023-05-05T03:37:12.778Z,99.90
2023-05-05T03:39:42.046Z,99.90
2023-05-05T03:42:10.213Z,99.90
2023-05-05T03:44:38.139Z,99.90
2023-05-05T03:47:06.688Z,99.90
2023-05-05T03:49:34.734Z,99.90
2023-05-05T03:52:02.651Z,99.90
2023-05-05T03:54:31.181Z,99.90
2023-05-05T03:57:00.613Z,99.90
2023-05-05T03:59:28.986Z,99.90
2023-05-05T04:01:56.929Z,99.90
2023-05-05T04:04:25.008Z,99.90
2023-05-05T04:06:53.104Z,99.90
2023-05-05T04:09:21.008Z,99.90
2023-05-05T04:11:48.978Z,99.90
2023-05-05T04:14:18.245Z,99.90
2023-05-05T04:16:46.408Z,99.90
2023-05-05T04:19:14.301Z,99.90
2023-05-05T04:21:42.352Z,99.90
2023-05-05T04:24:10.551Z,99.90
2023-05-05T04:26:38.502Z,99.90
2023-05-05T04:29:06.448Z,99.90
2023-05-05T04:31:35.748Z,99.90
2023-05-05T04:34:03.862Z,99.90
2023-05-05T04:36:31.789Z,99.90
2023-05-05T04:38:59.794Z,99.90
2023-05-05T04:41:29.518Z,99.90
2023-05-05T04:43:58.046Z,99.90
2023-05-05T04:46:26.933Z,99.90
2023-05-05T04:48:56.183Z,99.90
2023-05-05T04:51:24.148Z,99.90
2023-05-05T04:53:52.290Z,99.90
2023-05-05T04:56:20.262Z,99.90
2023-05-05T04:58:48.168Z,99.90
2023-05-05T05:01:16.265Z,99.90
2023-05-05T05:03:44.326Z,99.90
2023-05-05T05:06:13.672Z,99.90
2023-05-05T05:08:41.809Z,99.90
2023-05-05T05:11:09.965Z,99.90
2023-05-05T05:13:37.896Z,99.90
2023-05-05T05:16:07.201Z,99.90
2023-05-05T05:18:35.150Z,99.90
2023-05-05T05:21:03.584Z,99.90
2023-05-05T05:23:33.056Z,99.90
2023-05-05T05:26:01.040Z,99.90
2023-05-05T05:28:29.190Z,99.90
2023-05-05T05:30:57.083Z,99.90
2023-05-05T05:33:25.157Z,99.90
2023-05-05T05:35:53.175Z,99.90
2023-05-05T05:38:21.145Z,99.90
2023-05-05T05:40:50.562Z,99.90
2023-05-05T05:43:18.493Z,99.90
2023-05-05T05:45:46.649Z,99.90
2023-05-05T05:48:14.609Z,99.90
2023-05-05T05:50:42.565Z,99.90
2023-05-05T05:53:10.569Z,99.90
2023-05-05T05:55:38.509Z,99.90
2023-05-05T05:58:07.978Z,99.90
2023-05-05T06:00:35.842Z,99.90
2023-05-05T06:03:04.100Z,99.90
2023-05-05T06:05:32.401Z,99.90
2023-05-05T06:08:00.272Z,99.90
2023-05-05T06:10:28.672Z,99.90
2023-05-05T06:12:56.705Z,99.90
2023-05-05T06:15:26.344Z,99.90
2023-05-05T06:17:54.759Z,99.90
2023-05-05T06:20:22.890Z,99.90
2023-05-05T06:22:50.845Z,99.90
2023-05-05T06:25:18.966Z,99.90
2023-05-05T06:27:47.035Z,99.90
2023-05-05T06:30:15.737Z,99.90
2023-05-05T06:32:45.157Z,99.90
2023-05-05T06:35:13.203Z,99.90
2023-05-05T06:37:41.305Z,99.90
2023-05-05T06:40:10.915Z,99.90
2023-05-05T06:42:39.038Z,99.90
2023-05-05T06:45:07.914Z,99.90
2023-05-05T06:47:36.480Z,99.90
2023-05-05T06:50:07.131Z,99.90
2023-05-05T06:52:35.378Z,99.90
2023-05-05T06:55:03.765Z,99.90
2023-05-05T06:57:31.765Z,99.90
2023-05-05T06:59:59.743Z,99.90
2023-05-05T07:02:27.754Z,99.90
2023-05-05T07:04:56.427Z,99.90
2023-05-05T07:07:26.894Z,99.90
2023-05-05T07:09:54.815Z,99.90
2023-05-05T07:12:23.060Z,99.90
2023-05-05T07:14:51.382Z,99.90
2023-05-05T07:17:19.347Z,99.90
2023-05-05T07:19:48.277Z,99.90
2023-05-05T07:22:16.591Z,99.90
2023-05-05T07:24:45.858Z,99.90
2023-05-05T07:27:14.104Z,99.90
2023-05-05T07:29:41.978Z,99.90
2023-05-05T07:32:09.983Z,99.90
2023-05-05T07:34:38.238Z,99.90
2023-05-05T07:37:06.300Z,99.90
2023-05-05T07:39:34.990Z,99.90
2023-05-05T07:42:04.244Z,99.90
2023-05-05T07:44:32.338Z,99.90
2023-05-05T07:47:00.591Z,99.90
2023-05-05T07:49:28.571Z,99.90
2023-05-05T07:51:56.622Z,99.90
2023-05-05T07:54:24.558Z,99.40
2023-05-05T07:56:52.608Z,97.90
2023-05-05T07:59:22.138Z,96.80
2023-05-05T08:01:50.090Z,95.10
2023-05-05T08:04:18.012Z,92.90
2023-05-05T08:06:46.030Z,88.80
2023-05-05T08:09:14.117Z,83.90
2023-05-05T08:11:42.215Z,80.70
2023-05-05T08:14:10.278Z,77.90
2023-05-05T08:16:39.539Z,76.50
2023-05-05T08:19:17.541Z,72.00
2023-05-05T08:21:49.404Z,69.60
2023-05-05T08:24:17.472Z,67.90
2023-05-05T08:26:45.407Z,68.50
2023-05-05T08:29:13.385Z,71.40
2023-05-05T08:31:42.743Z,68.90
2023-05-05T08:34:10.810Z,68.40
2023-05-05T08:36:38.753Z,67.30
2023-05-05T08:39:07.116Z,66.40
2023-05-05T08:41:35.671Z,65.80
2023-05-05T08:44:03.677Z,64.70
2023-05-05T08:46:32.418Z,64.20
2023-05-05T08:49:03.756Z,64.50
2023-05-05T08:51:39.038Z,65.70
2023-05-05T08:54:11.753Z,66.30
2023-05-05T08:56:42.029Z,67.00
2023-05-05T08:59:11.095Z,68.30
2023-05-05T09:01:39.365Z,68.90
2023-05-05T09:04:09.810Z,69.30
2023-05-05T09:06:38.590Z,68.20
2023-05-05T09:09:07.487Z,68.90
2023-05-05T09:11:36.346Z,69.00
2023-05-05T09:14:04.251Z,68.00
2023-05-05T09:16:32.222Z,67.70
2023-05-05T09:19:04.191Z,67.40
2023-05-05T09:21:33.612Z,68.00
2023-05-05T09:24:11.675Z,69.20
2023-05-05T09:26:42.136Z,69.30
2023-05-05T09:29:10.197Z,69.90
2023-05-05T09:31:38.613Z,69.50
2023-05-05T09:34:16.676Z,69.50
2023-05-05T09:36:49.168Z,69.40
2023-05-05T09:39:19.288Z,67.90
2023-05-05T09:41:47.642Z,67.80
2023-05-05T09:44:16.918Z,66.10
2023-05-05T09:46:52.297Z,63.90
2023-05-05T09:49:25.491Z,63.00
2023-05-05T09:51:55.928Z,60.20
2023-05-05T09:54:25.320Z,59.60
2023-05-05T09:56:53.713Z,57.30
2023-05-05T09:59:22.440Z,56.10
2023-05-05T10:01:51.337Z,54.30
2023-05-05T10:04:28.112Z,53.00
2023-05-05T10:06:58.267Z,52.90
2023-05-05T10:09:27.153Z,53.20
2023-05-05T10:11:57.224Z,53.40
2023-05-05T10:14:26.167Z,53.60
2023-05-05T10:16:56.015Z,53.60
2023-05-05T10:19:25.392Z,53.80
2023-05-05T10:21:55.265Z,53.00
2023-05-05T10:24:31.868Z,52.50
2023-05-05T10:27:02.533Z,52.10
2023-05-05T10:29:40.506Z,52.50
2023-05-05T10:32:46.603Z,51.80
2023-05-05T10:35:09.762Z,50.90
2023-05-05T10:37:39.346Z,50.50
2023-05-05T10:40:10.761Z,49.80
2023-05-05T10:42:40.600Z,49.50
2023-05-05T10:45:09.598Z,49.40
2023-05-05T10:47:40.271Z,49.50
2023-05-05T10:50:16.268Z,49.40
2023-05-05T10:52:52.410Z,49.90
2023-05-05T10:55:29.254Z,49.50
2023-05-05T10:57:57.248Z,49.40
2023-05-05T11:00:51.175Z,49.30
2023-05-05T11:03:23.288Z,48.90
2023-05-05T11:06:13.712Z,49.10
2023-05-05T11:08:45.385Z,49.50
2023-05-05T11:11:14.874Z,50.40
2023-05-05T11:13:42.862Z,50.60
2023-05-05T11:16:45.541Z,52.10
2023-05-05T11:19:48.384Z,53.30
2023-05-05T11:22:17.524Z,54.90
2023-05-05T11:24:45.671Z,55.30
2023-05-05T11:27:15.193Z,57.10
2023-05-05T11:30:08.650Z,56.50
2023-05-05T11:32:37.307Z,58.20
2023-05-05T11:35:06.170Z,59.70
2023-05-05T11:37:35.347Z,60.40
2023-05-05T11:40:15.367Z,60.90
2023-05-05T11:42:44.849Z,61.60
2023-05-05T11:45:22.357Z,61.50
2023-05-05T11:47:50.392Z,62.40
2023-05-05T11:50:23.487Z,62.90
2023-05-05T11:52:51.571Z,63.30
2023-05-05T11:55:26.104Z,64.70
2023-05-05T11:57:55.383Z,65.40
2023-05-05T12:00:33.726Z,66.40
2023-05-05T12:03:01.992Z,67.30
2023-05-05T12:05:30.211Z,67.80
2023-05-05T12:08:01.252Z,69.10
2023-05-05T12:10:29.272Z,69.00
2023-05-05T12:12:58.677Z,69.20
2023-05-05T12:15:31.250Z,67.90
2023-05-05T12:18:02.140Z,68.60
2023-05-05T12:20:34.939Z,67.40
2023-05-05T12:23:04.357Z,69.30
2023-05-05T12:25:39.626Z,68.30
2023-05-05T12:28:09.941Z,69.30
2023-05-05T12:30:37.943Z,68.90
2023-05-05T12:33:07.436Z,69.20
2023-05-05T12:35:36.743Z,68.30
2023-05-05T12:38:04.733Z,67.00
2023-05-05T12:40:47.713Z,67.70
2023-05-05T12:43:28.493Z,68.10
2023-05-05T12:46:08.421Z,67.40
2023-05-05T12:48:38.785Z,67.50
2023-05-05T12:51:14.854Z,68.10
2023-05-05T12:53:43.081Z,68.80
2023-05-05T12:56:30.352Z,68.40
2023-05-05T12:59:00.108Z,68.90
2023-05-05T13:01:28.636Z,68.30
2023-05-05T13:04:10.865Z,68.60
2023-05-05T13:06:39.989Z,69.30
2023-05-05T13:09:08.977Z,70.40
2023-05-05T13:11:38.386Z,70.10
2023-05-05T13:14:08.740Z,68.80
2023-05-05T13:16:36.823Z,70.00
2023-05-05T13:19:04.892Z,69.70
2023-05-05T13:21:33.120Z,70.30
2023-05-05T13:24:18.913Z,70.70
2023-05-05T13:26:49.497Z,70.90
2023-05-05T13:29:19.183Z,70.60
2023-05-05T13:31:47.593Z,70.70
2023-05-05T13:34:15.791Z,71.50
2023-05-05T13:36:44.790Z,71.90
2023-05-05T13:39:13.305Z,72.30
2023-05-05T13:41:42.077Z,71.70
2023-05-05T13:44:10.634Z,71.80
2023-05-05T13:46:41.043Z,71.70
2023-05-05T13:49:09.168Z,71.90
2023-05-05T13:51:38.385Z,72.50
2023-05-05T13:54:07.573Z,72.10
2023-05-05T13:56:36.332Z,73.00
2023-05-05T13:59:04.754Z,71.10
2023-05-05T14:01:32.975Z,72.40
2023-05-05T14:04:05.480Z,73.60
2023-05-05T14:06:34.286Z,74.10
2023-05-05T14:09:06.375Z,72.30
2023-05-05T14:11:35.005Z,71.60
2023-05-05T14:14:03.292Z,72.10
2023-05-05T14:16:31.769Z,73.70
2023-05-05T14:18:59.963Z,73.50
2023-05-05T14:21:29.472Z,72.10
2023-05-05T14:29:42.239Z,73.00
2023-05-05T14:32:10.188Z,74.30
2023-05-05T14:34:38.108Z,73.80
2023-05-05T14:37:07.514Z,74.60
2023-05-05T14:39:35.442Z,74.90
2023-05-05T14:42:03.616Z,76.00
2023-05-05T14:44:31.719Z,74.90
2023-05-05T14:46:59.738Z,74.80
2023-05-05T14:49:27.771Z,75.00
2023-05-05T14:51:56.809Z,75.30
2023-05-05T14:54:28.603Z,74.60
2023-05-05T14:56:58.406Z,75.60
2023-05-05T14:59:27.027Z,75.60
2023-05-05T15:01:54.998Z,75.70
2023-05-05T15:04:23.017Z,75.60
2023-05-05T15:06:51.072Z,76.10
2023-05-05T15:09:20.153Z,76.00
2023-05-05T15:11:49.413Z,75.70
2023-05-05T15:14:17.338Z,75.90
2023-05-05T15:16:46.874Z,75.40
2023-05-05T15:19:14.829Z,76.30
2023-05-05T15:21:42.860Z,77.40
2023-05-05T15:24:10.756Z,78.80
2023-05-05T15:26:39.015Z,78.90
2023-05-05T15:29:08.402Z,80.00
2023-05-05T15:31:36.452Z,80.50
2023-05-05T15:34:04.497Z,81.00
2023-05-05T15:36:32.543Z,81.10
2023-05-05T15:39:00.410Z,80.90
2023-05-05T15:41:29.515Z,80.80
2023-05-05T15:43:58.120Z,81.30
2023-05-05T15:46:27.483Z,81.20
2023-05-05T15:49:01.646Z,81.50
2023-05-05T15:51:29.677Z,81.40
2023-05-05T15:53:57.721Z,81.90
2023-05-05T15:56:27.277Z,80.90
2023-05-05T15:58:55.217Z,81.50
2023-05-05T16:01:23.240Z,82.10
2023-05-05T16:04:01.340Z,82.50
2023-05-05T16:06:29.386Z,82.60
2023-05-05T16:08:58.750Z,83.10
2023-05-05T16:11:26.926Z,83.20
2023-05-05T16:13:55.138Z,83.50
2023-05-05T16:16:23.229Z,84.20
2023-05-05T16:18:52.735Z,83.90
2023-05-05T16:21:20.665Z,84.50
2023-05-05T16:23:48.732Z,83.40
2023-05-05T16:26:16.796Z,84.50
2023-05-05T16:28:44.725Z,85.20
2023-05-05T16:31:13.460Z,85.90
2023-05-05T16:33:43.707Z,85.70
2023-05-05T16:36:13.676Z,86.60
2023-05-05T16:38:41.787Z,86.70
2023-05-05T16:41:09.803Z,86.70
2023-05-05T16:43:37.864Z,86.60
2023-05-05T16:46:07.220Z,86.60
2023-05-05T16:48:35.169Z,86.70
2023-05-05T16:51:03.208Z,87.00
2023-05-05T16:53:32.544Z,87.80
2023-05-05T16:56:00.756Z,87.50
2023-05-05T16:58:28.690Z,86.90
2023-05-05T17:00:56.864Z,87.40
2023-05-05T17:03:24.844Z,87.90
2023-05-05T17:05:54.247Z,87.90
2023-05-05T17:08:22.275Z,88.50
2023-05-05T17:10:51.573Z,89.00
2023-05-05T17:13:19.651Z,89.20
2023-05-05T17:15:47.830Z,89.20
2023-05-05T17:18:15.811Z,89.10
2023-05-05T17:20:43.737Z,89.50
2023-05-05T17:23:11.759Z,90.00
2023-05-05T17:25:39.802Z,90.00
2023-05-05T17:28:09.083Z,90.10
2023-05-05T17:30:37.574Z,90.10
2023-05-05T17:33:05.641Z,90.20
2023-05-05T17:35:34.026Z,90.40
2023-05-05T17:38:01.935Z,90.50
2023-05-05T17:40:30.021Z,90.40
2023-05-05T17:42:57.932Z,90.50
2023-05-05T17:45:27.440Z,90.60
2023-05-05T17:47:55.611Z,90.60
2023-05-05T17:50:24.382Z,90.60
2023-05-05T17:52:52.319Z,90.80
2023-05-05T17:55:20.731Z,90.90
2023-05-05T17:57:48.774Z,91.10
2023-05-05T18:00:18.194Z,91.20
2023-05-05T18:02:47.569Z,91.40
2023-05-05T18:05:15.617Z,91.40
2023-05-05T18:07:43.654Z,91.50
2023-05-05T18:10:12.058Z,91.60
2023-05-05T18:12:40.020Z,91.50
2023-05-05T18:15:09.441Z,91.70
2023-05-05T18:17:37.602Z,91.90
2023-05-05T18:20:08.352Z,91.80
2023-05-05T18:22:36.559Z,92.10
2023-05-05T18:25:07.146Z,91.90
2023-05-05T18:27:39.818Z,92.00
2023-05-05T18:30:08.932Z,92.40
2023-05-05T18:32:38.102Z,92.50
2023-05-05T18:35:08.542Z,92.50
2023-05-05T18:37:36.617Z,92.60
2023-05-05T18:40:04.840Z,92.90
2023-05-05T18:42:32.879Z,92.70
2023-05-05T18:45:00.982Z,92.70
2023-05-05T18:47:29.267Z,92.80
2023-05-05T18:49:57.332Z,93.20
2023-05-05T18:52:27.360Z,93.20
2023-05-05T18:54:55.299Z,93.50
2023-05-05T18:57:23.251Z,94.20
2023-05-05T18:59:51.518Z,92.40
2023-05-05T19:02:19.579Z,93.10
2023-05-05T19:04:47.535Z,97.00
2023-05-05T19:07:27.508Z,99.90
2023-05-05T19:10:04.354Z,99.90
2023-05-05T19:12:32.491Z,99.90
2023-05-05T19:15:00.569Z,99.90
2023-05-05T19:17:28.502Z,99.90
2023-05-05T19:19:56.791Z,99.90
2023-05-05T19:22:24.728Z,99.90
2023-05-05T19:24:52.577Z,99.90
2023-05-05T19:27:22.009Z,99.90
2023-05-05T19:29:52.356Z,99.90
2023-05-05T19:32:21.706Z,99.90
2023-05-05T19:34:49.831Z,99.90
2023-05-05T19:37:17.961Z,99.90
2023-05-05T19:39:45.896Z,99.90
2023-05-05T19:42:13.880Z,99.90
2023-05-05T19:44:43.146Z,99.90
2023-05-05T19:47:11.317Z,99.90
2023-05-05T19:49:39.439Z,99.90
2023-05-05T19:52:07.467Z,99.90
2023-05-05T19:54:36.113Z,99.90
2023-05-05T19:57:05.187Z,99.90
2023-05-05T19:59:33.696Z,99.90
2023-05-05T20:02:03.006Z,99.90
2023-05-05T20:04:30.977Z,99.90
2023-05-05T20:06:59.697Z,99.90
2023-05-05T20:09:28.293Z,99.90
2023-05-05T20:11:56.386Z,99.90
2023-05-05T20:14:24.328Z,99.90
2023-05-05T20:16:52.757Z,99.90
2023-05-05T20:19:22.132Z,99.90
2023-05-05T20:21:50.162Z,99.90
2023-05-05T20:24:18.182Z,99.90
2023-05-05T20:26:46.533Z,99.90
2023-05-05T20:29:15.129Z,99.90
2023-05-05T20:31:43.198Z,99.90
2023-05-05T20:34:11.193Z,99.90
2023-05-05T20:36:40.452Z,99.90
2023-05-05T20:39:08.516Z,99.90
2023-05-05T20:41:37.903Z,99.90
2023-05-05T20:44:06.283Z,99.90
2023-05-05T20:46:34.247Z,99.90
2023-05-05T20:49:02.156Z,99.90
2023-05-05T20:51:34.219Z,99.90
2023-05-05T20:54:03.691Z,99.90
2023-05-05T20:56:31.666Z,99.90
2023-05-05T20:58:59.815Z,99.90
2023-05-05T21:01:28.406Z,99.90
2023-05-05T21:03:56.520Z,99.90
2023-05-05T21:06:24.394Z,99.90
2023-05-05T21:08:52.281Z,99.90
2023-05-05T21:11:21.974Z,99.90
2023-05-05T21:13:49.962Z,99.90
2023-05-05T21:16:17.885Z,99.90
2023-05-05T21:18:47.297Z,99.90
2023-05-05T21:21:15.173Z,99.90
2023-05-05T21:23:43.315Z,99.90
2023-05-05T21:26:11.248Z,99.90
2023-05-05T21:28:40.480Z,99.90
2023-05-05T21:33:39.615Z,99.90
2023-05-05T21:36:07.742Z,99.90
2023-05-05T21:38:35.975Z,99.90
2023-05-05T21:41:03.905Z,99.90
2023-05-05T21:43:32.129Z,99.90
2023-05-05T21:46:01.935Z,99.90
2023-05-05T21:48:31.055Z,99.90
2023-05-05T21:50:59.029Z,99.90
2023-05-05T21:53:26.964Z,99.90
2023-05-05T21:55:55.176Z,99.90
2023-05-05T21:58:24.690Z,99.90
2023-05-05T22:00:52.826Z,99.90
2023-05-05T22:03:22.299Z,99.90
2023-05-05T22:05:50.407Z,99.90
2023-05-05T22:08:18.668Z,99.90
2023-05-05T22:10:46.686Z,99.90
2023-05-05T22:13:14.857Z,99.90
2023-05-05T22:15:47.188Z,99.90
2023-05-05T22:18:15.579Z,99.90
2023-05-05T22:20:45.052Z,99.90
2023-05-05T22:23:13.987Z,99.90
2023-05-05T22:25:42.139Z,99.90
2023-05-05T22:28:10.033Z,99.90
2023-05-05T22:30:38.018Z,99.90
2023-05-05T22:33:06.075Z,99.90
2023-05-05T22:35:34.358Z,99.90
2023-05-05T22:38:03.640Z,99.90
2023-05-05T22:40:31.673Z,99.90
2023-05-05T22:43:00.388Z,99.90
2023-05-05T22:45:28.410Z,99.90
2023-05-05T22:47:56.385Z,99.90
2023-05-05T22:50:24.479Z,99.90
2023-05-05T22:52:52.664Z,99.90
2023-05-05T22:55:22.456Z,99.90
2023-05-05T22:57:50.327Z,99.90
2023-05-05T23:00:18.518Z,99.90
2023-05-05T23:02:46.498Z,99.90
2023-05-05T23:05:14.517Z,99.90
2023-05-05T23:07:42.426Z,99.90
2023-05-05T23:10:11.091Z,99.90
2023-05-05T23:12:40.475Z,99.90
2023-05-05T23:15:09.908Z,99.90
2023-05-05T23:17:38.322Z,99.90
2023-05-05T23:20:09.518Z,99.90
2023-05-05T23:22:37.561Z,99.90
2023-05-05T23:25:05.858Z,99.90
2023-05-05T23:27:34.008Z,99.90
2023-05-05T23:30:03.244Z,99.90
2023-05-05T23:32:31.410Z,99.90
2023-05-05T23:34:59.520Z,99.90
2023-05-05T23:37:27.489Z,99.90
2023-05-05T23:39:55.585Z,99.90
2023-05-05T23:42:23.589Z,99.90
2023-05-05T23:44:51.503Z,99.90
2023-05-05T23:47:20.793Z,99.90
2023-05-05T23:49:48.802Z,99.90
2023-05-05T23:52:16.838Z,99.90
2023-05-05T23:54:46.044Z,99.90
2023-05-05T23:57:14.115Z,99.90
2023-05-05T23:59:42.096Z,99.90
